Flight Track Log - Related Links

Times and Time Zones

All times are in EDT time to prevent confusion due to time zone crossing. See the AAY894 flight status page for this flight to view local times or setup timezone preferences in your user account.


Time Position Orientation Groundspeed Altitude Reporting Facility
EDT Latitude Longitude Course Direction KTS MPH feet Rate Location/Type
Tue 07:08:14 AM 27.9000 -82.6833 180° South 168 193 900  Level Tampa TRACON
Tue 07:08:32 AM 27.8833 -82.6833 180° South 159 183 1,500 1,923 Climbing Tampa TRACON
Tue 07:09:32 AM 27.8333 -82.6833 180° South 205 236 3,400 2,231 Climbing Tampa TRACON
Tue 07:10:33 AM 27.8500 -82.7333 291° West 244 281 6,000 2,182 Climbing Tampa TRACON
Tue 07:11:33 AM 27.9333 -82.7167 10° North 313 360 7,800 1,991 Climbing Tampa TRACON
Tue 07:17:41 AM 28.5478 -82.6564 13° North 404 465 20,200 1,931 Climbing FlightAware ADS-B
Tue 07:18:17 AM 28.6136 -82.6392 10° North 408 470 20,800 1,183 Climbing FlightAware ADS-B
Tue 07:20:03 AM 28.8108 -82.6276 359° North 412 474 23,000 910 Climbing FlightAware ADS-B
Tue 07:20:42 AM 28.8884 -82.6289 359° North 411 473 23,000  Level FlightAware ADS-B
Tue 07:22:07 AM 29.0494 -82.6253 North 418 481 23,000  Level FlightAware ADS-B
Tue 07:22:37 AM 29.1100 -82.6213 North 422 486 23,000 741 Level FlightAware ADS-B
Tue 07:23:28 AM 29.2096 -82.6164 North 421 484 24,000 1,229 Climbing FlightAware ADS-B
Tue 07:24:00 AM 29.2719 -82.6134 North 422 486 24,700 670 Climbing FlightAware ADS-B
Tue 07:26:27 AM 29.5649 -82.5991 North 428 493 26,000 581 Climbing FlightAware ADS-B
Tue 07:27:06 AM 29.6389 -82.5956 North 449 517 26,500 963 Climbing FlightAware ADS-B
Tue 07:27:48 AM 29.7320 -82.5909 North 452 520 27,300 986 Climbing FlightAware ADS-B
Tue 07:28:19 AM 29.7977 -82.5877 North 459 528 27,700 787 Climbing FlightAware ADS-B
Tue 07:28:49 AM 29.8575 -82.5847 North 466 536 28,100 590 Climbing FlightAware ADS-B
Tue 07:29:20 AM 29.9285 -82.5812 North 475 547 28,300 295 Climbing FlightAware ADS-B
Tue 07:29:50 AM 29.9953 -82.5777 North 487 560 28,400 348 Climbing FlightAware ADS-B
Tue 07:30:29 AM 30.0735 -82.5739 North 490 564 28,700 514 Climbing FlightAware ADS-B
Tue 07:31:00 AM 30.1540 -82.5698 North 496 571 29,000 677 Climbing FlightAware ADS-B
Tue 07:31:31 AM 30.2284 -82.5663 North 501 577 29,400 1,238 Climbing FlightAware ADS-B
Tue 07:33:40 AM 30.5204 -82.5707 356° North 478 550 32,300 1,329 Climbing FlightAware ADS-B
Tue 07:34:09 AM 30.5650 -82.5737 North 484 557 32,900 1,187 Climbing FlightAware ADS-B
Tue 07:35:11 AM 30.7234 -82.5643 North 484 557 34,100 956 Climbing FlightAware ADS-B
Tue 07:36:02 AM 30.8319 -82.5611 North 474 545 34,700 486 Climbing Jacksonville Center
Tue 07:37:02 AM 30.9656 -82.5511 North 479 551 35,000 150 Climbing Jacksonville Center
Tue 07:38:02 AM 31.1033 -82.5408 North 479 551 35,000  Level Jacksonville Center
Tue 07:39:02 AM 31.2411 -82.5306 North 484 557 35,000  Level Jacksonville Center
Tue 07:40:02 AM 31.3683 -82.5178 North 498 573 35,000  Level Jacksonville Center
Tue 07:41:02 AM 31.5103 -82.5075 North 498 573 35,000  Level Jacksonville Center
Tue 07:42:02 AM 31.6564 -82.4997 North 504 580 35,000  Level Jacksonville Center
Tue 07:43:29 AM 31.8617 -82.4617 North 528 608 35,000  Level Atlanta Center
Tue 07:44:29 AM 32.0075 -82.4347 North 533 613 35,000  Level Atlanta Center
Tue 07:45:29 AM 32.1575 -82.4122 North 533 613 35,000  Level Atlanta Center
Tue 07:46:29 AM 32.3178 -82.3872 North 533 613 35,000  Level Atlanta Center
Tue 07:47:29 AM 32.4636 -82.3575 10° North 533 613 35,000  Level Atlanta Center
Tue 07:48:29 AM 32.6094 -82.3375 North 533 613 35,000  Level Atlanta Center
Tue 07:49:29 AM 32.7572 -82.3147 North 533 613 35,000  Level Atlanta Center
Tue 07:50:29 AM 32.9053 -82.2919 North 533 613 35,000  Level Atlanta Center
Tue 07:51:29 AM 33.0489 -82.2694 North 533 613 35,000  Level Atlanta Center
Tue 07:52:29 AM 33.2008 -82.2439 North 533 613 35,000  Level Atlanta Center
Tue 07:53:29 AM 33.3467 -82.2211 North 538 619 35,000  Level Atlanta Center
Tue 07:54:29 AM 33.4944 -82.1956 North 538 619 35,000  Level Atlanta Center
Tue 07:55:29 AM 33.6422 -82.1697 North 538 619 35,000  Level Atlanta Center
Tue 07:56:29 AM 33.7775 -82.1469 North 543 625 35,000  Level Atlanta Center
Tue 08:01:26 AM 34.6419 -81.9969 North 538 619 35,000  Level FlightAware ADS-B
Tue 08:02:10 AM 34.7506 -81.9774 North 534 615 35,000  Level FlightAware ADS-B
Tue 08:02:40 AM 34.8241 -81.9643 North 535 616 35,000 77 Level FlightAware ADS-B
Tue 08:03:28 AM 34.9457 -81.9423 North 535 616 35,100  Climbing FlightAware ADS-B
Tue 08:03:59 AM 35.0222 -81.9282 North 535 616 35,000 -91 Descending FlightAware ADS-B
Tue 08:04:34 AM 35.1099 -81.9052 North 535 616 35,000  Level FlightAware ADS-B
Tue 08:05:52 AM 35.3038 -81.8500 13° North 548 631 35,000  Level FlightAware ADS-B
Tue 08:06:29 AM 35.2631 -81.8664 13° North 543 625 35,000  Level Atlanta Center
Tue 08:07:29 AM 35.4125 -81.8217 14° North 543 625 35,000  Level Atlanta Center
Tue 08:08:29 AM 35.5658 -81.7767 13° North 549 632 35,000  Level Atlanta Center
Tue 08:09:29 AM 35.7319 -81.7311 13° North 549 632 35,000  Level Atlanta Center
Tue 08:10:29 AM 35.8814 -81.6886 13° North 549 632 35,000  Level Atlanta Center
Tue 08:11:29 AM 36.0350 -81.6431 13° North 554 638 35,000  Level Atlanta Center
Tue 08:12:29 AM 36.1861 -81.5975 14° North 560 644 35,000  Level Atlanta Center
Tue 08:13:29 AM 36.3419 -81.5567 12° North 560 644 35,000  Level Atlanta Center
Tue 08:14:29 AM 36.4950 -81.5053 15° North 560 644 35,000  Level Atlanta Center
Tue 08:15:29 AM 36.6486 -81.4617 13° North 566 651 35,000  Level Atlanta Center
Tue 08:17:50 AM 36.9889 -81.3617 13° North 564 649 35,000  Level Indianapolis Center
Tue 08:18:51 AM 37.1397 -81.3158 14° North 562 647 35,000  Level Indianapolis Center
Tue 08:19:53 AM 37.3114 -81.2633 14° North 557 641 35,000  Level Indianapolis Center
Tue 08:20:55 AM 37.4558 -81.2114 16° North 556 640 35,000  Level Indianapolis Center
Tue 08:21:57 AM 37.6022 -81.1475 19° North 564 649 35,000  Level Indianapolis Center
Tue 08:22:59 AM 37.7483 -81.0847 19° North 568 654 35,000  Level Indianapolis Center
Tue 08:24:01 AM 37.9089 -81.0147 19° North 567 652 35,000  Level Indianapolis Center
Tue 08:25:03 AM 38.0564 -80.9508 19° North 564 649 35,000  Level Indianapolis Center
Tue 08:26:05 AM 38.2333 -80.8725 19° North 564 649 35,000  Level Indianapolis Center
Tue 08:27:07 AM 38.3800 -80.8081 19° North 563 648 35,000  Level Indianapolis Center
Tue 08:28:09 AM 38.5272 -80.7431 19° North 563 648 35,000  Level Indianapolis Center
Tue 08:29:11 AM 38.6756 -80.6772 19° North 563 648 35,000  Level Indianapolis Center
Tue 08:30:13 AM 38.8231 -80.6103 19° North 563 648 35,000  Level Indianapolis Center
Tue 08:31:15 AM 38.9697 -80.5442 19° North 563 648 35,000  Level Indianapolis Center
Tue 08:32:17 AM 39.1472 -80.4650 19° North 563 648 35,000 14 Level Indianapolis Center
Tue 08:38:39 AM 40.0851 -80.0345 20° North 555 639 35,100  Climbing FlightAware ADS-B
Tue 08:39:26 AM 40.1992 -79.9813 20° North 558 642 35,000 -545 Descending FlightAware ADS-B
Tue 08:40:07 AM 40.2810 -79.9430 20° North 558 642 34,300 -1,077 Descending FlightAware ADS-B (SQZ / EGXP)
Tue 08:40:44 AM 40.3401 -79.9152 20° North 554 638 33,600 -939 Descending FlightAware ADS-B (SQZ / EGXP)
Tue 08:42:02 AM 40.5534 -79.8147 20° North 543 625 32,500 -903 Descending FlightAware ADS-B (KASD)
Tue 08:42:37 AM 40.6618 -79.7636 20° North 548 631 31,900 -938 Descending FlightAware ADS-B (SQZ / EGXP)
Tue 08:45:46 AM 41.0845 -79.5612 20° North 520 598 29,000 -927 Descending FlightAware ADS-B (CYYZ)
Tue 08:46:17 AM 41.1440 -79.5325 20° North 472 543 28,500 -885 Descending FlightAware ADS-B (CYYZ)
Tue 08:46:47 AM 41.1912 -79.5097 19° North 464 534 28,100 -1,200 Descending FlightAware ADS-B (CYYZ)
Tue 08:47:22 AM 41.2714 -79.4708 20° North 454 522 27,200 -1,694 Descending FlightAware ADS-B (CYYZ)
Tue 08:48:12 AM 41.3642 -79.4260 19° North 412 474 25,700 -1,535 Descending FlightAware ADS-B (CYYZ)
Tue 08:48:48 AM 41.4317 -79.3934 20° North 403 464 25,000 -1,108 Descending FlightAware ADS-B (CYYZ)
Tue 08:49:17 AM 41.4792 -79.3704 20° North 402 463 24,500 -915 Descending FlightAware ADS-B (CYYZ)
Tue 08:49:47 AM 41.5324 -79.3443 20° North 401 461 24,100 -844 Descending FlightAware ADS-B (CYYZ)
Tue 08:50:21 AM 41.5974 -79.3130 20° North 428 493 23,600 -1,569 Descending FlightAware ADS-B (CYYZ)
Tue 08:50:52 AM 41.6555 -79.2842 20° North 430 495 22,400 -2,339 Descending FlightAware ADS-B (CYYZ)
Tue 08:51:20 AM 41.7052 -79.2596 20° North 424 488 21,300 -2,200 Descending FlightAware ADS-B (CYYZ)
Tue 08:51:52 AM 41.7543 -79.2356 20° North 418 481 20,200 -2,129 Descending FlightAware ADS-B (CYYZ)
Tue 08:52:22 AM 41.8177 -79.2042 20° North 404 465 19,100 -2,400 Descending FlightAware ADS-B (CYYZ)
Tue 08:52:52 AM 41.8672 -79.1798 20° North 391 450 17,800 -2,136 Descending FlightAware ADS-B (CYYZ)
Tue 08:53:21 AM 41.9180 -79.1546 20° North 372 428 17,000 -1,750 Descending FlightAware ADS-B (CYYZ)
Tue 08:53:40 AM 41.9503 -79.1388 20° North 362 417 16,400 -1,355 Descending FlightAware ADS-B (KASD)
Tue 08:53:52 AM 41.9610 -79.1337 20° North 362 417 16,300 -1,116 Descending FlightAware ADS-B (CYYZ)
Tue 08:54:23 AM 42.0113 -79.1087 20° North 356 410 15,600 -1,279 Descending FlightAware ADS-B (CYYZ)
Tue 08:54:53 AM 42.0628 -79.0830 20° North 348 400 15,000 -1,220 Descending FlightAware ADS-B (CYYZ)
Tue 08:55:22 AM 42.1024 -79.0633 20° North 343 395 14,400 -1,322 Descending FlightAware ADS-B (CYYZ)
Tue 08:55:52 AM 42.1518 -79.0388 20° North 337 388 13,700 -1,300 Descending FlightAware ADS-B (CYYZ)
Tue 08:56:22 AM 42.1957 -79.0167 20° North 330 380 13,100 -1,200 Descending FlightAware ADS-B (CYYZ)
Tue 08:56:52 AM 42.2392 -78.9949 20° North 324 373 12,500 -1,200 Descending FlightAware ADS-B (CYYZ)
Tue 08:57:22 AM 42.2752 -78.9769 20° North 317 365 11,900 -1,000 Descending FlightAware ADS-B (CYYZ)
Tue 08:57:52 AM 42.3203 -78.9545 20° North 323 372 11,500 -343 Descending FlightAware ADS-B (CYYZ)
Tue 08:58:32 AM 42.3756 -78.9266 20° North 311 358 11,500  Level FlightAware ADS-B (CYYZ)
Tue 08:59:02 AM 42.4169 -78.9058 20° North 311 358 11,500 -200 Level FlightAware ADS-B (CYYZ)
Tue 08:59:32 AM 42.4575 -78.8855 20° North 311 358 11,300 -700 Descending FlightAware ADS-B (CYYZ)
Tue 09:00:02 AM 42.4974 -78.8653 20° North 310 357 10,800 -984 Descending FlightAware ADS-B (CYYZ)
Tue 09:00:33 AM 42.5387 -78.8446 20° North 310 357 10,300 -964 Descending FlightAware ADS-B (CYYZ)
Tue 09:00:58 AM 42.5704 -78.8284 20° North 310 357 9,900 -923 Descending FlightAware ADS-B (CYYZ)
Tue 09:01:12 AM 42.5923 -78.8174 20° North 308 354 9,700 -1,034 Descending FlightAware ADS-B (CYYZ)
Tue 09:01:27 AM 42.6113 -78.8076 20° North 304 350 9,400 -1,400 Descending FlightAware ADS-B (CYYZ)
Tue 09:01:42 AM 42.6306 -78.7978 20° North 302 348 9,000 -1,548 Descending FlightAware ADS-B (CYYZ)
Tue 09:01:58 AM 42.6519 -78.7871 20° North 300 345 8,600 -1,655 Descending FlightAware ADS-B (CYYZ)
Tue 09:02:11 AM 42.6686 -78.7785 20° North 301 346 8,200 -1,714 Descending FlightAware ADS-B (KASD)
Tue 09:02:12 AM 42.6711 -78.7774 20° North 300 345 8,200 -1,765 Level FlightAware ADS-B (CYYZ)
Tue 09:02:28 AM 42.6911 -78.7673 19° North 301 346 7,700 -1,200 Descending FlightAware ADS-B (CYYZ)
Tue 09:02:42 AM 42.7108 -78.7574 20° North 299 344 7,600 -343 Descending FlightAware ADS-B (CYYZ)
Tue 09:03:03 AM 42.7368 -78.7444 20° North 299 344 7,500 -300 Descending FlightAware ADS-B (CYYZ)
Tue 09:03:22 AM 42.7621 -78.7315 20° North 293 337 7,400 -706 Descending FlightAware ADS-B (CYYZ)
Tue 09:03:37 AM 42.7802 -78.7234 15° North 285 328 7,100 -1,500 Descending FlightAware ADS-B (CYYZ)
Tue 09:03:42 AM 42.7685 -78.7283 15° North 284 327 6,900 -2,000 Descending FlightAware ADS-B (KASD)
Tue 09:03:52 AM 42.7992 -78.7163 14° North 281 323 6,600 -1,895 Descending FlightAware ADS-B (CYYZ)
Tue 09:04:01 AM 42.8109 -78.7122 15° North 274 315 6,300 -1,500 Descending FlightAware ADS-B (KASD)
Tue 09:04:32 AM 42.8449 -78.6992 16° North 270 311 5,600 -1,455 Descending FlightAware ADS-B (CYYZ)
Tue 09:04:34 AM 42.8485 -78.6977 17° North 271 312 5,500 -333 Descending FlightAware ADS-B (KASD)
Tue 09:04:50 AM 42.8700 -78.6889 13° North 249 287 5,500  Level FlightAware ADS-B (KASD)
Tue 09:04:57 AM 42.8769 -78.6873 North 241 277 5,500 -545 Level FlightAware ADS-B (CYYZ)
Tue 09:05:12 AM 42.8945 -78.6866 359° North 236 272 5,300 -1,029 Descending FlightAware ADS-B (CYYZ)
Tue 09:05:32 AM 42.9167 -78.6876 358° North 230 265 4,900 -1,143 Descending FlightAware ADS-B (CYYZ)
Tue 09:05:33 AM 42.9072 -78.6872 357° North 230 265 4,900 -750 Level FlightAware ADS-B (KASD)
Tue 09:05:48 AM 42.9303 -78.6889 356° North 227 261 4,700 -857 Descending FlightAware ADS-B (CYYZ)
Tue 09:05:54 AM 42.9282 -78.6886 356° North 226 260 4,600 -632 Descending FlightAware ADS-B (KASD)
Tue 09:06:07 AM 42.9502 -78.6911 355° North 215 247 4,500 -375 Descending FlightAware ADS-B (CYYZ)
Tue 09:06:10 AM 42.9440 -78.6903 355° North 208 239 4,500  Level FlightAware ADS-B (KASD)
Tue 09:06:35 AM 42.9703 -78.6934 356° North 189 217 4,500  Level FlightAware ADS-B (KASD)
Tue 09:06:57 AM 42.9970 -78.6961 357° North 178 205 4,500  Level FlightAware ADS-B (CYYZ)
Tue 09:07:17 AM 43.0119 -78.6974 357° North 173 199 4,500  Level FlightAware ADS-B (CYYZ)
Tue 09:07:37 AM 43.0265 -78.6986 357° North 167 192 4,500 -171 Level FlightAware ADS-B (CYYZ)
Tue 09:07:52 AM 43.0401 -78.7001 357° North 163 188 4,400 -632 Descending FlightAware ADS-B (CYYZ)
Tue 09:07:56 AM 43.0302 -78.6990 356° North 160 184 4,300 -1,200 Descending FlightAware ADS-B (KASD)
Tue 09:08:07 AM 43.0514 -78.7011 357° North 161 185 4,100 -1,154 Descending FlightAware ADS-B (CYYZ)
Tue 09:08:22 AM 43.0468 -78.7007 357° North 162 186 3,800 -1,765 Descending FlightAware ADS-B (KASD)
Tue 09:08:58 AM 43.0833 -78.7167 357° North 157 181 2,600 -909 Descending Buffalo TRACON
Tue 09:10:01 AM 43.1075 -78.7631 306° West 149 171 2,300 -238 Descending Cleveland Center
Tue 09:11:04 AM 43.1094 -78.8203 273° West 147 169 2,100 -432 Descending Cleveland Center
Tue 09:12:06 AM 43.1089 -78.8711 269° West 133 153 1,400 -677 Descending Cleveland Center
Tue 09:14:00 AM 43.1000 -78.9333 312° West  Level FlightAware Approximate

Login

Don't have an account? Register now (free) for customized features, flight alerts, and more!